sensor_id;sensor_type;location;lat;lon;timestamp;P1;durP1;ratioP1;P2;durP2;ratioP2
22697;SDS011;11516;51.612;7.510;2023-03-14T00:00:05;6.70;;;2.63;;
22697;SDS011;11516;51.612;7.510;2023-03-14T00:02:33;7.35;;;2.53;;
22697;SDS011;11516;51.612;7.510;2023-03-14T00:04:59;5.05;;;2.38;;
22697;SDS011;11516;51.612;7.510;2023-03-14T00:07:27;6.28;;;2.40;;
22697;SDS011;11516;51.612;7.510;2023-03-14T00:09:53;7.93;;;2.40;;
22697;SDS011;11516;51.612;7.510;2023-03-14T00:12:18;7.72;;;2.70;;
22697;SDS011;11516;51.612;7.510;2023-03-14T00:14:44;6.18;;;2.40;;
22697;SDS011;11516;51.612;7.510;2023-03-14T00:17:09;7.30;;;2.53;;
22697;SDS011;11516;51.612;7.510;2023-03-14T00:19:35;5.40;;;2.40;;
22697;SDS011;11516;51.612;7.510;2023-03-14T00:22:00;4.73;;;1.87;;
22697;SDS011;11516;51.612;7.510;2023-03-14T00:24:26;5.63;;;2.17;;
22697;SDS011;11516;51.612;7.510;2023-03-14T00:26:51;7.07;;;2.17;;
22697;SDS011;11516;51.612;7.510;2023-03-14T00:29:17;7.90;;;2.90;;
22697;SDS011;11516;51.612;7.510;2023-03-14T00:31:42;5.93;;;2.30;;
22697;SDS011;11516;51.612;7.510;2023-03-14T00:34:08;5.43;;;2.13;;
22697;SDS011;11516;51.612;7.510;2023-03-14T00:36:33;5.57;;;2.27;;
22697;SDS011;11516;51.612;7.510;2023-03-14T00:38:59;6.13;;;2.00;;
22697;SDS011;11516;51.612;7.510;2023-03-14T00:41:25;5.15;;;1.90;;
22697;SDS011;11516;51.612;7.510;2023-03-14T00:43:50;7.70;;;2.72;;
22697;SDS011;11516;51.612;7.510;2023-03-14T00:46:16;10.98;;;4.53;;
22697;SDS011;11516;51.612;7.510;2023-03-14T00:48:44;11.13;;;4.25;;
22697;SDS011;11516;51.612;7.510;2023-03-14T00:51:10;8.20;;;3.60;;
22697;SDS011;11516;51.612;7.510;2023-03-14T00:53:39;9.70;;;4.33;;
22697;SDS011;11516;51.612;7.510;2023-03-14T00:56:05;4.55;;;2.20;;
22697;SDS011;11516;51.612;7.510;2023-03-14T00:58:32;8.30;;;4.18;;
22697;SDS011;11516;51.612;7.510;2023-03-14T01:00:58;10.40;;;4.38;;
22697;SDS011;11516;51.612;7.510;2023-03-14T01:03:24;7.47;;;3.40;;
22697;SDS011;11516;51.612;7.510;2023-03-14T01:05:49;6.23;;;2.50;;
22697;SDS011;11516;51.612;7.510;2023-03-14T01:08:15;7.03;;;3.05;;
22697;SDS011;11516;51.612;7.510;2023-03-14T01:10:41;7.40;;;2.90;;
22697;SDS011;11516;51.612;7.510;2023-03-14T01:13:07;6.40;;;2.57;;
22697;SDS011;11516;51.612;7.510;2023-03-14T01:15:34;8.75;;;2.85;;
22697;SDS011;11516;51.612;7.510;2023-03-14T01:17:59;5.85;;;1.90;;
22697;SDS011;11516;51.612;7.510;2023-03-14T01:20:25;8.23;;;2.47;;
22697;SDS011;11516;51.612;7.510;2023-03-14T01:22:51;0.05;;;0.05;;
22697;SDS011;11516;51.612;7.510;2023-03-14T01:25:17;1.20;;;0.30;;
22697;SDS011;11516;51.612;7.510;2023-03-14T01:27:43;1.00;;;0.40;;
22697;SDS011;11516;51.612;7.510;2023-03-14T01:30:09;0.10;;;0.10;;
22697;SDS011;11516;51.612;7.510;2023-03-14T01:32:36;0.80;;;0.50;;
22697;SDS011;11516;51.612;7.510;2023-03-14T01:35:02;0.28;;;0.28;;
22697;SDS011;11516;51.612;7.510;2023-03-14T01:37:28;0.00;;;0.00;;
22697;SDS011;11516;51.612;7.510;2023-03-14T01:39:53;0.00;;;0.00;;
22697;SDS011;11516;51.612;7.510;2023-03-14T01:42:19;0.00;;;0.00;;
22697;SDS011;11516;51.612;7.510;2023-03-14T01:47:15;0.25;;;0.25;;
22697;SDS011;11516;51.612;7.510;2023-03-14T01:49:41;0.40;;;0.40;;
22697;SDS011;11516;51.612;7.510;2023-03-14T01:52:20;0.30;;;0.20;;
22697;SDS011;11516;51.612;7.510;2023-03-14T01:54:51;0.30;;;0.20;;
22697;SDS011;11516;51.612;7.510;2023-03-14T01:57:20;0.08;;;0.08;;
22697;SDS011;11516;51.612;7.510;2023-03-14T02:00:07;1.70;;;0.30;;
22697;SDS011;11516;51.612;7.510;2023-03-14T02:02:43;0.05;;;0.05;;
22697;SDS011;11516;51.612;7.510;2023-03-14T02:05:10;1.08;;;0.68;;
22697;SDS011;11516;51.612;7.510;2023-03-14T02:07:46;0.60;;;0.40;;
22697;SDS011;11516;51.612;7.510;2023-03-14T02:10:21;0.03;;;0.03;;
22697;SDS011;11516;51.612;7.510;2023-03-14T02:12:49;0.20;;;0.20;;
22697;SDS011;11516;51.612;7.510;2023-03-14T02:15:17;0.30;;;0.30;;
22697;SDS011;11516;51.612;7.510;2023-03-14T02:17:42;0.30;;;0.30;;
22697;SDS011;11516;51.612;7.510;2023-03-14T02:22:48;0.00;;;0.00;;
22697;SDS011;11516;51.612;7.510;2023-03-14T02:25:20;1.17;;;0.43;;
22697;SDS011;11516;51.612;7.510;2023-03-14T02:28:07;0.50;;;0.40;;
22697;SDS011;11516;51.612;7.510;2023-03-14T02:30:33;0.20;;;0.20;;
22697;SDS011;11516;51.612;7.510;2023-03-14T02:38:36;0.25;;;0.15;;
22697;SDS011;11516;51.612;7.510;2023-03-14T02:41:21;0.20;;;0.20;;
22697;SDS011;11516;51.612;7.510;2023-03-14T02:43:47;4.15;;;0.55;;
22697;SDS011;11516;51.612;7.510;2023-03-14T02:46:14;0.80;;;0.80;;
22697;SDS011;11516;51.612;7.510;2023-03-14T02:48:43;0.00;;;0.00;;
22697;SDS011;11516;51.612;7.510;2023-03-14T02:51:13;0.10;;;0.10;;
22697;SDS011;11516;51.612;7.510;2023-03-14T02:53:39;0.20;;;0.15;;
22697;SDS011;11516;51.612;7.510;2023-03-14T02:56:06;0.15;;;0.08;;
22697;SDS011;11516;51.612;7.510;2023-03-14T02:58:32;0.00;;;0.00;;
22697;SDS011;11516;51.612;7.510;2023-03-14T03:00:58;0.38;;;0.30;;
22697;SDS011;11516;51.612;7.510;2023-03-14T03:03:24;0.25;;;0.25;;
22697;SDS011;11516;51.612;7.510;2023-03-14T03:05:50;0.60;;;0.60;;
22697;SDS011;11516;51.612;7.510;2023-03-14T03:08:17;0.20;;;0.20;;
22697;SDS011;11516;51.612;7.510;2023-03-14T03:10:44;0.00;;;0.00;;
22697;SDS011;11516;51.612;7.510;2023-03-14T03:13:09;0.07;;;0.07;;
22697;SDS011;11516;51.612;7.510;2023-03-14T03:15:35;1.00;;;0.30;;
22697;SDS011;11516;51.612;7.510;2023-03-14T03:18:00;0.00;;;0.00;;
22697;SDS011;11516;51.612;7.510;2023-03-14T03:20:26;0.00;;;0.00;;
22697;SDS011;11516;51.612;7.510;2023-03-14T03:22:52;0.17;;;0.17;;
22697;SDS011;11516;51.612;7.510;2023-03-14T03:25:17;0.20;;;0.13;;
22697;SDS011;11516;51.612;7.510;2023-03-14T03:27:43;0.20;;;0.20;;
22697;SDS011;11516;51.612;7.510;2023-03-14T03:30:08;0.10;;;0.07;;
22697;SDS011;11516;51.612;7.510;2023-03-14T03:32:34;0.65;;;0.20;;
22697;SDS011;11516;51.612;7.510;2023-03-14T03:35:02;0.60;;;0.60;;
22697;SDS011;11516;51.612;7.510;2023-03-14T03:37:29;1.00;;;0.68;;
22697;SDS011;11516;51.612;7.510;2023-03-14T03:39:56;0.00;;;0.00;;
22697;SDS011;11516;51.612;7.510;2023-03-14T03:42:22;0.63;;;0.53;;
22697;SDS011;11516;51.612;7.510;2023-03-14T03:44:47;0.10;;;0.10;;
22697;SDS011;11516;51.612;7.510;2023-03-14T03:47:13;0.20;;;0.20;;
22697;SDS011;11516;51.612;7.510;2023-03-14T03:49:38;1.00;;;0.20;;
22697;SDS011;11516;51.612;7.510;2023-03-14T03:52:04;1.33;;;0.57;;
22697;SDS011;11516;51.612;7.510;2023-03-14T03:54:29;0.20;;;0.20;;
22697;SDS011;11516;51.612;7.510;2023-03-14T03:56:55;0.20;;;0.10;;
22697;SDS011;11516;51.612;7.510;2023-03-14T03:59:21;0.30;;;0.20;;
22697;SDS011;11516;51.612;7.510;2023-03-14T04:01:46;0.00;;;0.00;;
22697;SDS011;11516;51.612;7.510;2023-03-14T04:04:12;0.33;;;0.33;;
22697;SDS011;11516;51.612;7.510;2023-03-14T04:06:38;0.10;;;0.10;;
22697;SDS011;11516;51.612;7.510;2023-03-14T04:09:04;0.60;;;0.30;;
22697;SDS011;11516;51.612;7.510;2023-03-14T04:11:29;0.57;;;0.50;;
22697;SDS011;11516;51.612;7.510;2023-03-14T04:13:55;0.40;;;0.40;;
22697;SDS011;11516;51.612;7.510;2023-03-14T04:16:22;0.10;;;0.10;;
22697;SDS011;11516;51.612;7.510;2023-03-14T04:18:49;0.20;;;0.20;;
22697;SDS011;11516;51.612;7.510;2023-03-14T04:21:15;0.10;;;0.10;;
22697;SDS011;11516;51.612;7.510;2023-03-14T04:23:41;0.03;;;0.03;;
22697;SDS011;11516;51.612;7.510;2023-03-14T04:26:07;0.20;;;0.20;;
22697;SDS011;11516;51.612;7.510;2023-03-14T04:28:32;0.20;;;0.20;;
22697;SDS011;11516;51.612;7.510;2023-03-14T04:30:58;0.13;;;0.13;;
22697;SDS011;11516;51.612;7.510;2023-03-14T04:33:23;0.00;;;0.00;;
22697;SDS011;11516;51.612;7.510;2023-03-14T04:35:49;0.30;;;0.10;;
22697;SDS011;11516;51.612;7.510;2023-03-14T04:38:18;0.13;;;0.07;;
22697;SDS011;11516;51.612;7.510;2023-03-14T04:40:44;0.00;;;0.00;;
22697;SDS011;11516;51.612;7.510;2023-03-14T04:43:10;0.70;;;0.60;;
22697;SDS011;11516;51.612;7.510;2023-03-14T04:45:36;0.20;;;0.20;;
22697;SDS011;11516;51.612;7.510;2023-03-14T04:48:05;0.10;;;0.10;;
22697;SDS011;11516;51.612;7.510;2023-03-14T04:50:31;0.10;;;0.10;;
22697;SDS011;11516;51.612;7.510;2023-03-14T04:52:56;1.10;;;0.50;;
22697;SDS011;11516;51.612;7.510;2023-03-14T04:55:22;0.70;;;0.40;;
22697;SDS011;11516;51.612;7.510;2023-03-14T04:57:47;0.10;;;0.10;;
22697;SDS011;11516;51.612;7.510;2023-03-14T05:00:13;0.00;;;0.00;;
22697;SDS011;11516;51.612;7.510;2023-03-14T05:02:39;0.50;;;0.20;;
22697;SDS011;11516;51.612;7.510;2023-03-14T05:05:04;0.23;;;0.23;;
22697;SDS011;11516;51.612;7.510;2023-03-14T05:07:30;0.00;;;0.00;;
22697;SDS011;11516;51.612;7.510;2023-03-14T05:09:56;1.30;;;0.70;;
22697;SDS011;11516;51.612;7.510;2023-03-14T05:12:21;0.20;;;0.10;;
22697;SDS011;11516;51.612;7.510;2023-03-14T05:14:47;0.10;;;0.10;;
22697;SDS011;11516;51.612;7.510;2023-03-14T05:17:12;0.00;;;0.00;;
22697;SDS011;11516;51.612;7.510;2023-03-14T05:19:39;0.10;;;0.10;;
22697;SDS011;11516;51.612;7.510;2023-03-14T05:22:05;0.10;;;0.10;;
22697;SDS011;11516;51.612;7.510;2023-03-14T05:24:31;0.00;;;0.00;;
22697;SDS011;11516;51.612;7.510;2023-03-14T05:26:57;0.10;;;0.10;;
22697;SDS011;11516;51.612;7.510;2023-03-14T05:29:23;0.00;;;0.00;;
22697;SDS011;11516;51.612;7.510;2023-03-14T05:31:48;0.00;;;0.00;;
22697;SDS011;11516;51.612;7.510;2023-03-14T05:34:14;3.20;;;0.30;;
22697;SDS011;11516;51.612;7.510;2023-03-14T05:36:39;0.00;;;0.00;;
22697;SDS011;11516;51.612;7.510;2023-03-14T05:39:05;0.00;;;0.00;;
22697;SDS011;11516;51.612;7.510;2023-03-14T05:41:30;0.00;;;0.00;;
22697;SDS011;11516;51.612;7.510;2023-03-14T05:43:56;0.00;;;0.00;;
22697;SDS011;11516;51.612;7.510;2023-03-14T05:46:21;0.00;;;0.00;;
22697;SDS011;11516;51.612;7.510;2023-03-14T05:48:47;0.20;;;0.20;;
22697;SDS011;11516;51.612;7.510;2023-03-14T05:51:12;0.00;;;0.00;;
22697;SDS011;11516;51.612;7.510;2023-03-14T05:53:38;0.00;;;0.00;;
22697;SDS011;11516;51.612;7.510;2023-03-14T05:56:03;0.00;;;0.00;;
22697;SDS011;11516;51.612;7.510;2023-03-14T05:58:29;0.00;;;0.00;;
22697;SDS011;11516;51.612;7.510;2023-03-14T06:00:54;0.40;;;0.40;;
22697;SDS011;11516;51.612;7.510;2023-03-14T06:03:20;0.00;;;0.00;;
22697;SDS011;11516;51.612;7.510;2023-03-14T06:05:45;0.33;;;0.07;;
22697;SDS011;11516;51.612;7.510;2023-03-14T06:08:11;0.00;;;0.00;;
22697;SDS011;11516;51.612;7.510;2023-03-14T06:10:36;0.00;;;0.00;;
22697;SDS011;11516;51.612;7.510;2023-03-14T06:13:02;0.00;;;0.00;;
22697;SDS011;11516;51.612;7.510;2023-03-14T06:15:28;0.00;;;0.00;;
22697;SDS011;11516;51.612;7.510;2023-03-14T06:17:54;0.30;;;0.00;;
22697;SDS011;11516;51.612;7.510;2023-03-14T06:20:20;0.05;;;0.05;;
22697;SDS011;11516;51.612;7.510;2023-03-14T06:22:46;0.00;;;0.00;;
22697;SDS011;11516;51.612;7.510;2023-03-14T06:25:11;0.00;;;0.00;;
22697;SDS011;11516;51.612;7.510;2023-03-14T06:27:37;0.00;;;0.00;;
22697;SDS011;11516;51.612;7.510;2023-03-14T06:30:02;0.10;;;0.10;;
22697;SDS011;11516;51.612;7.510;2023-03-14T06:32:28;0.03;;;0.03;;
22697;SDS011;11516;51.612;7.510;2023-03-14T06:34:56;0.20;;;0.20;;
22697;SDS011;11516;51.612;7.510;2023-03-14T06:37:25;0.10;;;0.10;;
22697;SDS011;11516;51.612;7.510;2023-03-14T06:39:55;0.00;;;0.00;;
22697;SDS011;11516;51.612;7.510;2023-03-14T06:42:21;2.00;;;0.40;;
22697;SDS011;11516;51.612;7.510;2023-03-14T06:44:46;0.05;;;0.05;;
22697;SDS011;11516;51.612;7.510;2023-03-14T06:47:12;0.00;;;0.00;;
22697;SDS011;11516;51.612;7.510;2023-03-14T06:49:38;0.20;;;0.20;;
22697;SDS011;11516;51.612;7.510;2023-03-14T06:52:03;0.80;;;0.70;;
22697;SDS011;11516;51.612;7.510;2023-03-14T06:54:29;0.00;;;0.00;;
22697;SDS011;11516;51.612;7.510;2023-03-14T06:56:54;0.17;;;0.17;;
22697;SDS011;11516;51.612;7.510;2023-03-14T06:59:20;0.20;;;0.10;;
22697;SDS011;11516;51.612;7.510;2023-03-14T07:01:45;0.30;;;0.30;;
22697;SDS011;11516;51.612;7.510;2023-03-14T07:04:12;0.00;;;0.00;;
22697;SDS011;11516;51.612;7.510;2023-03-14T07:06:38;0.00;;;0.00;;
22697;SDS011;11516;51.612;7.510;2023-03-14T07:09:04;0.20;;;0.20;;
22697;SDS011;11516;51.612;7.510;2023-03-14T07:11:30;0.00;;;0.00;;
22697;SDS011;11516;51.612;7.510;2023-03-14T07:13:55;0.30;;;0.30;;
22697;SDS011;11516;51.612;7.510;2023-03-14T07:16:21;0.10;;;0.10;;
22697;SDS011;11516;51.612;7.510;2023-03-14T07:18:46;0.00;;;0.00;;
22697;SDS011;11516;51.612;7.510;2023-03-14T07:21:12;0.00;;;0.00;;
22697;SDS011;11516;51.612;7.510;2023-03-14T07:23:37;0.17;;;0.17;;
22697;SDS011;11516;51.612;7.510;2023-03-14T07:26:03;0.00;;;0.00;;
22697;SDS011;11516;51.612;7.510;2023-03-14T07:28:29;0.10;;;0.10;;
22697;SDS011;11516;51.612;7.510;2023-03-14T07:30:55;0.03;;;0.03;;
22697;SDS011;11516;51.612;7.510;2023-03-14T07:33:20;0.00;;;0.00;;
22697;SDS011;11516;51.612;7.510;2023-03-14T07:35:47;0.00;;;0.00;;
22697;SDS011;11516;51.612;7.510;2023-03-14T07:38:13;0.00;;;0.00;;
22697;SDS011;11516;51.612;7.510;2023-03-14T07:40:39;0.00;;;0.00;;
22697;SDS011;11516;51.612;7.510;2023-03-14T07:43:04;0.00;;;0.00;;
22697;SDS011;11516;51.612;7.510;2023-03-14T07:45:30;0.00;;;0.00;;
22697;SDS011;11516;51.612;7.510;2023-03-14T07:47:55;0.08;;;0.08;;
22697;SDS011;11516;51.612;7.510;2023-03-14T07:50:22;0.40;;;0.30;;
22697;SDS011;11516;51.612;7.510;2023-03-14T07:52:51;0.00;;;0.00;;
22697;SDS011;11516;51.612;7.510;2023-03-14T07:55:16;0.10;;;0.10;;
22697;SDS011;11516;51.612;7.510;2023-03-14T07:57:42;0.75;;;0.52;;
22697;SDS011;11516;51.612;7.510;2023-03-14T08:00:09;0.00;;;0.00;;
22697;SDS011;11516;51.612;7.510;2023-03-14T08:02:36;1.20;;;0.10;;
22697;SDS011;11516;51.612;7.510;2023-03-14T08:05:01;0.60;;;0.20;;
22697;SDS011;11516;51.612;7.510;2023-03-14T08:07:27;0.60;;;0.52;;
22697;SDS011;11516;51.612;7.510;2023-03-14T08:09:53;0.20;;;0.20;;
22697;SDS011;11516;51.612;7.510;2023-03-14T08:12:18;0.00;;;0.00;;
22697;SDS011;11516;51.612;7.510;2023-03-14T08:14:44;0.00;;;0.00;;
22697;SDS011;11516;51.612;7.510;2023-03-14T08:17:09;0.10;;;0.10;;
22697;SDS011;11516;51.612;7.510;2023-03-14T08:19:35;1.20;;;0.57;;
22697;SDS011;11516;51.612;7.510;2023-03-14T08:22:00;0.20;;;0.10;;
22697;SDS011;11516;51.612;7.510;2023-03-14T08:24:26;0.10;;;0.10;;
22697;SDS011;11516;51.612;7.510;2023-03-14T08:26:52;0.08;;;0.08;;
22697;SDS011;11516;51.612;7.510;2023-03-14T08:29:17;0.00;;;0.00;;
22697;SDS011;11516;51.612;7.510;2023-03-14T08:31:42;0.00;;;0.00;;
22697;SDS011;11516;51.612;7.510;2023-03-14T08:34:09;0.00;;;0.00;;
22697;SDS011;11516;51.612;7.510;2023-03-14T08:36:34;0.20;;;0.07;;
22697;SDS011;11516;51.612;7.510;2023-03-14T08:39:00;0.10;;;0.10;;
22697;SDS011;11516;51.612;7.510;2023-03-14T08:41:26;7.20;;;0.20;;
22697;SDS011;11516;51.612;7.510;2023-03-14T08:43:51;0.40;;;0.40;;
22697;SDS011;11516;51.612;7.510;2023-03-14T08:46:16;0.00;;;0.00;;
22697;SDS011;11516;51.612;7.510;2023-03-14T08:48:42;0.10;;;0.10;;
22697;SDS011;11516;51.612;7.510;2023-03-14T08:51:11;0.00;;;0.00;;
22697;SDS011;11516;51.612;7.510;2023-03-14T08:53:39;0.10;;;0.10;;
22697;SDS011;11516;51.612;7.510;2023-03-14T08:56:05;0.28;;;0.28;;
22697;SDS011;11516;51.612;7.510;2023-03-14T08:58:32;0.50;;;0.10;;
22697;SDS011;11516;51.612;7.510;2023-03-14T09:00:57;0.08;;;0.03;;
22697;SDS011;11516;51.612;7.510;2023-03-14T09:03:23;0.00;;;0.00;;
22697;SDS011;11516;51.612;7.510;2023-03-14T09:05:50;0.00;;;0.00;;
22697;SDS011;11516;51.612;7.510;2023-03-14T09:08:16;0.10;;;0.10;;
22697;SDS011;11516;51.612;7.510;2023-03-14T09:10:42;0.00;;;0.00;;
22697;SDS011;11516;51.612;7.510;2023-03-14T09:13:07;0.10;;;0.10;;
22697;SDS011;11516;51.612;7.510;2023-03-14T09:15:33;0.00;;;0.00;;
22697;SDS011;11516;51.612;7.510;2023-03-14T09:17:58;0.00;;;0.00;;
22697;SDS011;11516;51.612;7.510;2023-03-14T09:20:24;0.20;;;0.13;;
22697;SDS011;11516;51.612;7.510;2023-03-14T09:22:50;0.10;;;0.10;;
22697;SDS011;11516;51.612;7.510;2023-03-14T09:25:15;0.00;;;0.00;;
22697;SDS011;11516;51.612;7.510;2023-03-14T09:27:41;0.00;;;0.00;;
22697;SDS011;11516;51.612;7.510;2023-03-14T09:30:06;0.10;;;0.07;;
22697;SDS011;11516;51.612;7.510;2023-03-14T09:32:32;0.00;;;0.00;;
22697;SDS011;11516;51.612;7.510;2023-03-14T09:34:58;0.20;;;0.20;;
22697;SDS011;11516;51.612;7.510;2023-03-14T09:37:24;0.20;;;0.20;;
22697;SDS011;11516;51.612;7.510;2023-03-14T09:39:49;0.20;;;0.10;;
22697;SDS011;11516;51.612;7.510;2023-03-14T09:42:16;0.00;;;0.00;;
22697;SDS011;11516;51.612;7.510;2023-03-14T09:44:51;0.00;;;0.00;;
22697;SDS011;11516;51.612;7.510;2023-03-14T09:47:44;0.00;;;0.00;;
22697;SDS011;11516;51.612;7.510;2023-03-14T09:50:14;0.00;;;0.00;;
22697;SDS011;11516;51.612;7.510;2023-03-14T09:52:41;0.00;;;0.00;;
22697;SDS011;11516;51.612;7.510;2023-03-14T09:57:38;0.00;;;0.00;;
22697;SDS011;11516;51.612;7.510;2023-03-14T10:00:21;0.17;;;0.17;;
22697;SDS011;11516;51.612;7.510;2023-03-14T10:02:52;0.00;;;0.00;;
22697;SDS011;11516;51.612;7.510;2023-03-14T10:05:25;0.30;;;0.10;;
22697;SDS011;11516;51.612;7.510;2023-03-14T10:07:51;0.60;;;0.60;;
22697;SDS011;11516;51.612;7.510;2023-03-14T10:10:18;0.80;;;0.30;;
22697;SDS011;11516;51.612;7.510;2023-03-14T10:12:46;0.10;;;0.10;;
22697;SDS011;11516;51.612;7.510;2023-03-14T10:15:22;0.10;;;0.10;;
22697;SDS011;11516;51.612;7.510;2023-03-14T10:17:51;0.40;;;0.40;;
22697;SDS011;11516;51.612;7.510;2023-03-14T10:20:36;0.52;;;0.52;;
22697;SDS011;11516;51.612;7.510;2023-03-14T10:23:45;0.00;;;0.00;;
22697;SDS011;11516;51.612;7.510;2023-03-14T10:26:12;0.00;;;0.00;;
22697;SDS011;11516;51.612;7.510;2023-03-14T10:28:43;0.00;;;0.00;;
22697;SDS011;11516;51.612;7.510;2023-03-14T10:31:10;0.05;;;0.03;;
22697;SDS011;11516;51.612;7.510;2023-03-14T10:33:36;0.00;;;0.00;;
22697;SDS011;11516;51.612;7.510;2023-03-14T10:36:22;0.00;;;0.00;;
22697;SDS011;11516;51.612;7.510;2023-03-14T10:38:51;0.00;;;0.00;;
22697;SDS011;11516;51.612;7.510;2023-03-14T10:41:50;0.00;;;0.00;;
22697;SDS011;11516;51.612;7.510;2023-03-14T10:44:20;0.00;;;0.00;;
22697;SDS011;11516;51.612;7.510;2023-03-14T10:47:01;0.03;;;0.03;;
22697;SDS011;11516;51.612;7.510;2023-03-14T10:49:33;0.00;;;0.00;;
22697;SDS011;11516;51.612;7.510;2023-03-14T10:52:22;0.00;;;0.00;;
22697;SDS011;11516;51.612;7.510;2023-03-14T10:54:53;0.30;;;0.20;;
22697;SDS011;11516;51.612;7.510;2023-03-14T10:57:22;0.00;;;0.00;;
22697;SDS011;11516;51.612;7.510;2023-03-14T10:59:47;0.00;;;0.00;;
22697;SDS011;11516;51.612;7.510;2023-03-14T11:02:24;0.60;;;0.30;;
22697;SDS011;11516;51.612;7.510;2023-03-14T11:05:15;0.00;;;0.00;;
22697;SDS011;11516;51.612;7.510;2023-03-14T11:07:44;0.00;;;0.00;;
22697;SDS011;11516;51.612;7.510;2023-03-14T11:12:41;0.00;;;0.00;;
22697;SDS011;11516;51.612;7.510;2023-03-14T11:20:59;0.20;;;0.20;;
22697;SDS011;11516;51.612;7.510;2023-03-14T11:26:20;0.00;;;0.00;;
22697;SDS011;11516;51.612;7.510;2023-03-14T11:28:58;0.00;;;0.00;;
22697;SDS011;11516;51.612;7.510;2023-03-14T11:31:37;1.20;;;0.80;;
22697;SDS011;11516;51.612;7.510;2023-03-14T11:36:55;0.00;;;0.00;;
22697;SDS011;11516;51.612;7.510;2023-03-14T11:39:25;0.00;;;0.00;;
22697;SDS011;11516;51.612;7.510;2023-03-14T11:42:04;0.00;;;0.00;;
22697;SDS011;11516;51.612;7.510;2023-03-14T11:44:34;0.00;;;0.00;;
22697;SDS011;11516;51.612;7.510;2023-03-14T11:47:07;0.00;;;0.00;;
22697;SDS011;11516;51.612;7.510;2023-03-14T11:50:13;0.20;;;0.20;;
22697;SDS011;11516;51.612;7.510;2023-03-14T11:52:58;0.10;;;0.10;;
22697;SDS011;11516;51.612;7.510;2023-03-14T11:55:31;0.00;;;0.00;;
22697;SDS011;11516;51.612;7.510;2023-03-14T11:58:01;0.22;;;0.15;;
22697;SDS011;11516;51.612;7.510;2023-03-14T12:00:36;0.30;;;0.10;;
22697;SDS011;11516;51.612;7.510;2023-03-14T12:08:37;0.00;;;0.00;;
22697;SDS011;11516;51.612;7.510;2023-03-14T12:11:13;0.00;;;0.00;;
22697;SDS011;11516;51.612;7.510;2023-03-14T12:14:01;0.50;;;0.30;;
22697;SDS011;11516;51.612;7.510;2023-03-14T12:16:31;0.00;;;0.00;;
22697;SDS011;11516;51.612;7.510;2023-03-14T12:19:13;0.20;;;0.20;;
22697;SDS011;11516;51.612;7.510;2023-03-14T12:21:49;0.00;;;0.00;;
22697;SDS011;11516;51.612;7.510;2023-03-14T12:24:27;0.00;;;0.00;;
22697;SDS011;11516;51.612;7.510;2023-03-14T12:26:57;0.15;;;0.15;;
22697;SDS011;11516;51.612;7.510;2023-03-14T12:29:24;0.40;;;0.10;;
22697;SDS011;11516;51.612;7.510;2023-03-14T12:34:33;0.00;;;0.00;;
22697;SDS011;11516;51.612;7.510;2023-03-14T12:39:43;0.00;;;0.00;;
22697;SDS011;11516;51.612;7.510;2023-03-14T12:44:50;0.60;;;0.20;;
22697;SDS011;11516;51.612;7.510;2023-03-14T12:49:45;0.25;;;0.25;;
22697;SDS011;11516;51.612;7.510;2023-03-14T12:52:20;0.10;;;0.10;;
22697;SDS011;11516;51.612;7.510;2023-03-14T12:55:02;0.25;;;0.17;;
22697;SDS011;11516;51.612;7.510;2023-03-14T12:57:38;0.30;;;0.30;;
22697;SDS011;11516;51.612;7.510;2023-03-14T13:00:30;0.50;;;0.30;;
22697;SDS011;11516;51.612;7.510;2023-03-14T13:03:02;0.60;;;0.10;;
22697;SDS011;11516;51.612;7.510;2023-03-14T13:05:52;0.30;;;0.30;;
22697;SDS011;11516;51.612;7.510;2023-03-14T13:08:36;0.00;;;0.00;;
22697;SDS011;11516;51.612;7.510;2023-03-14T13:11:02;0.50;;;0.50;;
22697;SDS011;11516;51.612;7.510;2023-03-14T13:13:34;0.60;;;0.40;;
22697;SDS011;11516;51.612;7.510;2023-03-14T13:16:02;4.32;;;0.80;;
22697;SDS011;11516;51.612;7.510;2023-03-14T13:18:34;1.40;;;1.13;;
22697;SDS011;11516;51.612;7.510;2023-03-14T13:21:15;0.43;;;0.43;;
22697;SDS011;11516;51.612;7.510;2023-03-14T13:23:53;0.40;;;0.40;;
22697;SDS011;11516;51.612;7.510;2023-03-14T13:26:21;0.80;;;0.40;;
22697;SDS011;11516;51.612;7.510;2023-03-14T13:28:48;1.70;;;1.00;;
22697;SDS011;11516;51.612;7.510;2023-03-14T13:31:19;0.40;;;0.35;;
22697;SDS011;11516;51.612;7.510;2023-03-14T13:34:02;2.28;;;0.82;;
22697;SDS011;11516;51.612;7.510;2023-03-14T13:36:32;6.60;;;0.75;;
22697;SDS011;11516;51.612;7.510;2023-03-14T13:39:00;5.60;;;0.88;;
22697;SDS011;11516;51.612;7.510;2023-03-14T13:41:27;0.40;;;0.17;;
22697;SDS011;11516;51.612;7.510;2023-03-14T13:43:57;2.20;;;0.20;;
22697;SDS011;11516;51.612;7.510;2023-03-14T13:46:28;0.40;;;0.40;;
22697;SDS011;11516;51.612;7.510;2023-03-14T13:48:55;0.30;;;0.30;;
22697;SDS011;11516;51.612;7.510;2023-03-14T13:51:26;1.60;;;0.65;;
22697;SDS011;11516;51.612;7.510;2023-03-14T13:53:56;2.00;;;0.80;;
22697;SDS011;11516;51.612;7.510;2023-03-14T13:56:24;0.52;;;0.52;;
22697;SDS011;11516;51.612;7.510;2023-03-14T13:58:51;1.83;;;0.65;;
22697;SDS011;11516;51.612;7.510;2023-03-14T14:03:52;0.40;;;0.40;;
22697;SDS011;11516;51.612;7.510;2023-03-14T14:06:36;2.40;;;1.23;;
22697;SDS011;11516;51.612;7.510;2023-03-14T14:11:47;1.70;;;0.90;;
22697;SDS011;11516;51.612;7.510;2023-03-14T14:14:18;1.40;;;0.90;;
22697;SDS011;11516;51.612;7.510;2023-03-14T14:16:57;0.70;;;0.65;;
22697;SDS011;11516;51.612;7.510;2023-03-14T14:19:24;1.40;;;1.33;;
22697;SDS011;11516;51.612;7.510;2023-03-14T14:21:53;0.33;;;0.33;;
22697;SDS011;11516;51.612;7.510;2023-03-14T14:24:19;0.37;;;0.30;;
22697;SDS011;11516;51.612;7.510;2023-03-14T14:26:53;2.80;;;1.50;;
22697;SDS011;11516;51.612;7.510;2023-03-14T14:29:31;8.30;;;1.25;;
22697;SDS011;11516;51.612;7.510;2023-03-14T14:34:39;0.55;;;0.55;;
22697;SDS011;11516;51.612;7.510;2023-03-14T14:37:18;0.50;;;0.50;;
22697;SDS011;11516;51.612;7.510;2023-03-14T14:39:48;3.50;;;1.50;;
22697;SDS011;11516;51.612;7.510;2023-03-14T14:42:16;1.00;;;0.47;;
22697;SDS011;11516;51.612;7.510;2023-03-14T14:44:44;0.30;;;0.30;;
22697;SDS011;11516;51.612;7.510;2023-03-14T14:47:14;0.40;;;0.40;;
22697;SDS011;11516;51.612;7.510;2023-03-14T14:49:43;0.20;;;0.20;;
22697;SDS011;11516;51.612;7.510;2023-03-14T14:52:18;4.80;;;0.30;;
22697;SDS011;11516;51.612;7.510;2023-03-14T14:54:52;10.95;;;3.85;;
22697;SDS011;11516;51.612;7.510;2023-03-14T14:57:23;12.98;;;3.03;;
22697;SDS011;11516;51.612;7.510;2023-03-14T14:59:54;10.77;;;3.90;;
22697;SDS011;11516;51.612;7.510;2023-03-14T15:04:52;10.55;;;3.05;;
22697;SDS011;11516;51.612;7.510;2023-03-14T15:07:18;10.40;;;3.17;;
22697;SDS011;11516;51.612;7.510;2023-03-14T15:09:43;11.30;;;3.07;;
22697;SDS011;11516;51.612;7.510;2023-03-14T15:12:09;8.43;;;3.25;;
22697;SDS011;11516;51.612;7.510;2023-03-14T15:14:34;11.82;;;2.85;;
22697;SDS011;11516;51.612;7.510;2023-03-14T15:17:00;10.17;;;2.73;;
22697;SDS011;11516;51.612;7.510;2023-03-14T15:19:25;10.97;;;2.80;;
22697;SDS011;11516;51.612;7.510;2023-03-14T15:21:52;13.23;;;3.17;;
22697;SDS011;11516;51.612;7.510;2023-03-14T15:24:18;11.88;;;3.60;;
22697;SDS011;11516;51.612;7.510;2023-03-14T15:26:44;8.40;;;2.40;;
22697;SDS011;11516;51.612;7.510;2023-03-14T15:29:10;9.75;;;2.60;;
22697;SDS011;11516;51.612;7.510;2023-03-14T15:31:37;12.38;;;2.67;;
22697;SDS011;11516;51.612;7.510;2023-03-14T15:34:03;10.52;;;2.60;;
22697;SDS011;11516;51.612;7.510;2023-03-14T15:36:30;10.25;;;2.70;;
22697;SDS011;11516;51.612;7.510;2023-03-14T15:38:58;8.80;;;2.72;;
22697;SDS011;11516;51.612;7.510;2023-03-14T15:41:25;9.93;;;2.70;;
22697;SDS011;11516;51.612;7.510;2023-03-14T15:43:51;8.98;;;2.70;;
22697;SDS011;11516;51.612;7.510;2023-03-14T15:46:17;6.63;;;2.33;;
22697;SDS011;11516;51.612;7.510;2023-03-14T15:48:44;8.90;;;3.05;;